aviador You're here:

KBMG Decoded Metar

BLOOMINGTON in IN, USA
Report Time2018-05-28 09:53:00
UTC Time2018-05-28 09:56:45
Flight Rules vfr VFR
WindCalm
Visibility9999 m
Phenomena:N/A
Clouds:N/A
Expected CloudBase > 400 ft AGL from Temp-Dew spread
CeilingNone
Temp19°C (ISA +6)
Dew Point18°C (94% RH)
QNH1014 hPa
Density Alt1,752 ft
Elevation843 ft
Report Wrong Elevation
Raw Report
METAR KBMG 280953Z AUTO 00000KT 7SM CLR 19/18 A2994 RMK AO2 SLP130
T01890183=

Extra information for KBMG:More info

Metar Taf Metar & Taf Last 4 Metars F.Rules Stats Wind Profile Meteogram Temp Stats Airport Information Weather charts Add Link Nearby VenuesMetar ALERT Operation Metar Decoded Social comments

AIRNAV info for KBMG